Time;durP1;ratioP1;P1;durP2;ratioP2;P2;SDS_P1;SDS_P2;PMS_P1;PMS_P2;Temp;Humidity;BMP_temperature;BMP_pressure;BME280_temperature;BME280_humidity;BME280_pressure;Samples;Min_cycle;Max_cycle;Signal;HPM_P1;HPM_P2
2022/12/10 00:00:51;;;;;;;;;;;;;;;1.28;51.54;100383.94;5112330;27;19926;-83
2022/12/10 00:03:19;;;;;;;;;;;;;;;1.26;51.60;100385.88;5092632;28;19919;-83
2022/12/10 00:05:46;;;;;;;;;;;;;;;1.24;51.49;100388.66;5090148;28;20279;-83
2022/12/10 00:08:14;;;;;;;;;;;;;;;1.23;51.30;100388.75;5089041;28;19959;-83
2022/12/10 00:10:43;;;;;;;;;;;;;;;1.21;51.72;100394.22;5086933;28;19926;-82
2022/12/10 00:13:11;;;;;;;;;;;;;;;1.19;51.40;100388.03;5091917;27;19923;-83
2022/12/10 00:15:38;;;;;;;;;;;;;;;1.16;51.34;100395.44;5102464;28;20253;-83
2022/12/10 00:18:06;;;;;;;;;;;;;;;1.14;51.30;100389.25;5107036;28;19969;-84
2022/12/10 00:20:34;;;;;;;;;;;;;;;1.11;51.48;100391.16;5087608;28;19950;-83
2022/12/10 00:23:02;;;;;;;;;;;;;;;1.09;51.28;100387.66;5100487;28;19934;-83
2022/12/10 00:25:29;;;;;;;;;;;;;;;1.06;51.44;100390.56;5083778;28;20302;-83
2022/12/10 00:27:58;;;;;;;;;;;;;;;1.05;51.48;100396.03;5087192;28;20397;-83
2022/12/10 00:30:26;;;;;;;;;;;;;;;1.03;51.26;100397.94;5091095;28;19924;-83
2022/12/10 00:32:54;;;;;;;;;;;;;;;1.00;51.20;100396.31;5106491;28;20349;-83
2022/12/10 00:35:22;;;;;;;;;;;;;;;0.98;51.23;100400.03;5101072;28;20011;-83
2022/12/10 00:37:52;;;;;;;;;;;;;;;0.95;51.26;100400.19;5094665;28;19926;-83
2022/12/10 00:40:19;;;;;;;;;;;;;;;0.93;51.36;100402.94;5052511;28;19927;-83
2022/12/10 00:42:47;;;;;;;;;;;;;;;0.92;51.23;100394.97;5086798;28;20289;-83
2022/12/10 00:45:16;;;;;;;;;;;;;;;0.89;51.10;100395.13;5085046;28;20301;-83
2022/12/10 00:47:44;;;;;;;;;;;;;;;0.87;51.18;100388.91;5107882;28;19919;-83
2022/12/10 00:50:12;;;;;;;;;;;;;;;0.85;51.39;100385.47;5096775;28;19919;-83
2022/12/10 00:52:40;;;;;;;;;;;;;;;0.81;51.24;100390.13;5086621;28;19923;-83
2022/12/10 00:55:08;;;;;;;;;;;;;;;0.79;51.38;100389.34;5090715;28;19924;-83
2022/12/10 00:57:35;;;;;;;;;;;;;;;0.78;51.12;100398.38;5087537;28;19923;-83
2022/12/10 01:00:04;;;;;;;;;;;;;;;0.76;51.29;100407.50;5094462;28;19920;-83
2022/12/10 01:02:34;;;;;;;;;;;;;;;0.74;51.11;100399.50;5089612;28;19923;-83
2022/12/10 01:05:02;;;;;;;;;;;;;;;0.72;51.45;100406.78;5088084;28;19920;-83
2022/12/10 01:07:31;;;;;;;;;;;;;;;0.71;50.96;100402.34;5099811;27;19919;-83
2022/12/10 01:09:58;;;;;;;;;;;;;;;0.69;51.37;100401.56;5095682;28;19949;-83
2022/12/10 01:12:26;;;;;;;;;;;;;;;0.68;51.04;100402.53;5095189;27;19941;-83
2022/12/10 01:14:54;;;;;;;;;;;;;;;0.65;51.19;100406.25;5099177;28;19928;-83
2022/12/10 01:17:25;;;;;;;;;;;;;;;0.65;50.91;100408.09;5103589;27;19920;-83
2022/12/10 01:19:54;;;;;;;;;;;;;;;0.61;51.01;100399.28;5121979;27;19923;-83
2022/12/10 01:22:22;;;;;;;;;;;;;;;0.61;51.08;100414.56;5096874;28;19920;-83
2022/12/10 01:24:50;;;;;;;;;;;;;;;0.59;51.21;100419.19;5103557;28;19919;-83
2022/12/10 01:27:17;;;;;;;;;;;;;;;0.56;51.07;100420.22;5079346;28;19943;-83
2022/12/10 01:29:45;;;;;;;;;;;;;;;0.54;51.11;100422.09;5075617;28;19931;-83
2022/12/10 01:32:13;;;;;;;;;;;;;;;0.53;51.02;100422.19;5092779;28;19927;-83
2022/12/10 01:34:40;;;;;;;;;;;;;;;0.50;51.04;100430.44;5088236;28;19924;-83
2022/12/10 01:37:10;;;;;;;;;;;;;;;0.48;50.93;100438.59;5104402;27;19920;-83
2022/12/10 01:39:38;;;;;;;;;;;;;;;0.47;51.16;100428.78;5100802;27;19998;-83
2022/12/10 01:42:06;;;;;;;;;;;;;;;0.46;51.06;100431.53;5098223;28;20508;-83
2022/12/10 01:44:53;;;;;;;;;;;;;;;0.44;50.95;100426.22;5095078;28;19920;-82
2022/12/10 01:47:21;;;;;;;;;;;;;;;0.41;50.96;100431.78;5093109;28;19928;-83
2022/12/10 01:49:49;;;;;;;;;;;;;;;0.40;51.04;100440.81;5089963;28;19951;-82
2022/12/10 01:52:19;;;;;;;;;;;;;;;0.38;50.95;100437.31;5086220;28;19981;-83
2022/12/10 01:54:47;;;;;;;;;;;;;;;0.36;50.99;100436.53;5093756;27;19926;-82
2022/12/10 01:57:17;;;;;;;;;;;;;;;0.33;51.02;100432.19;5094738;27;20351;-83
2022/12/10 01:59:46;;;;;;;;;;;;;;;0.33;50.94;100436.72;5094211;28;19924;-83
2022/12/10 02:02:18;;;;;;;;;;;;;;;0.31;51.04;100442.16;5084983;27;19927;-83
2022/12/10 02:04:51;;;;;;;;;;;;;;;0.30;51.19;100447.63;5110613;27;20022;-83
2022/12/10 02:07:23;;;;;;;;;;;;;;;0.28;51.22;100449.50;5086365;27;19919;-83
2022/12/10 02:09:58;;;;;;;;;;;;;;;0.27;51.24;100456.72;5093086;28;19924;-83
2022/12/10 02:12:35;;;;;;;;;;;;;;;0.26;51.19;100446.94;5100386;27;20222;-83
2022/12/10 02:15:05;;;;;;;;;;;;;;;0.26;51.22;100463.06;5096858;28;19926;-83
2022/12/10 02:17:38;;;;;;;;;;;;;;;0.25;51.27;100455.94;5091730;28;19924;-83
2022/12/10 02:20:08;;;;;;;;;;;;;;;0.24;51.16;100453.34;5105482;28;19942;-83
2022/12/10 02:22:39;;;;;;;;;;;;;;;0.23;51.28;100448.91;5094405;28;20058;-83
2022/12/10 02:25:08;;;;;;;;;;;;;;;0.22;51.17;100450.72;5090766;28;19973;-83
2022/12/10 02:27:41;;;;;;;;;;;;;;;0.22;51.10;100449.84;5109497;27;19990;-84
2022/12/10 02:30:11;;;;;;;;;;;;;;;0.21;51.02;100442.72;5091737;27;19928;-83
2022/12/10 02:32:41;;;;;;;;;;;;;;;0.19;51.11;100445.47;5099461;28;20484;-83
2022/12/10 02:35:12;;;;;;;;;;;;;;;0.20;51.23;100444.53;5092560;27;19924;-83
2022/12/10 02:37:42;;;;;;;;;;;;;;;0.20;51.28;100438.28;5097264;28;20019;-83
2022/12/10 02:40:13;;;;;;;;;;;;;;;0.19;51.45;100439.25;5102625;27;19923;-83
2022/12/10 02:42:49;;;;;;;;;;;;;;;0.18;51.45;100441.06;5093037;28;20339;-83
2022/12/10 02:45:23;;;;;;;;;;;;;;;0.19;51.28;100450.03;5091430;28;19927;-84
2022/12/10 02:47:56;;;;;;;;;;;;;;;0.20;51.42;100446.34;5094789;28;19923;-83
2022/12/10 02:50:27;;;;;;;;;;;;;;;0.20;51.56;100449.03;5093979;28;19926;-84
2022/12/10 02:52:55;;;;;;;;;;;;;;;0.19;51.42;100448.16;5093109;28;19930;-84
2022/12/10 02:55:23;;;;;;;;;;;;;;;0.20;51.32;100446.34;5090630;27;19943;-84
2022/12/10 02:58:03;;;;;;;;;;;;;;;0.19;51.42;100447.31;5090630;28;19923;-84
2022/12/10 03:00:40;;;;;;;;;;;;;;;0.18;51.54;100454.53;5094571;28;20328;-84
2022/12/10 03:03:15;;;;;;;;;;;;;;;0.18;51.46;100449.16;5099240;27;19920;-84
2022/12/10 03:05:47;;;;;;;;;;;;;;;0.18;51.42;100457.22;5091269;28;19935;-84
2022/12/10 03:08:18;;;;;;;;;;;;;;;0.18;51.56;100462.59;5096064;28;19920;-84
2022/12/10 03:10:51;;;;;;;;;;;;;;;0.19;51.41;100463.47;5095798;28;20386;-84
2022/12/10 03:13:20;;;;;;;;;;;;;;;0.19;51.51;100463.47;5095012;28;19935;-84
2022/12/10 03:15:50;;;;;;;;;;;;;;;0.19;51.74;100460.78;5103304;28;19927;-84
2022/12/10 03:18:21;;;;;;;;;;;;;;;0.20;51.83;100460.69;5108790;28;20008;-83
2022/12/10 03:20:52;;;;;;;;;;;;;;;0.21;51.79;100473.19;5108385;28;19919;-84
2022/12/10 03:23:20;;;;;;;;;;;;;;;0.21;51.68;100470.50;5102580;27;20274;-84
2022/12/10 03:25:49;;;;;;;;;;;;;;;0.23;51.81;100475.81;5090548;28;19920;-84
2022/12/10 03:28:19;;;;;;;;;;;;;;;0.24;51.79;100480.25;5094650;28;19919;-84
2022/12/10 03:30:48;;;;;;;;;;;;;;;0.25;51.89;100479.31;5096068;28;19919;-84
2022/12/10 03:33:17;;;;;;;;;;;;;;;0.25;51.88;100469.41;5092723;28;20022;-84
2022/12/10 03:35:45;;;;;;;;;;;;;;;0.26;51.77;100478.34;5092135;28;19920;-81
2022/12/10 03:38:15;;;;;;;;;;;;;;;0.28;51.83;100479.13;5093861;28;20589;-80
2022/12/10 03:40:43;;;;;;;;;;;;;;;0.28;51.96;100476.44;5089530;27;19919;-80
2022/12/10 03:43:12;;;;;;;;;;;;;;;0.30;51.94;100479.91;5092678;28;19924;-82
2022/12/10 03:45:40;;;;;;;;;;;;;;;0.31;52.11;100485.22;5090620;28;20216;-80
2022/12/10 03:48:11;;;;;;;;;;;;;;;0.32;52.12;100483.41;5096197;28;19920;-83
2022/12/10 03:50:40;;;;;;;;;;;;;;;0.35;52.03;100485.97;5112372;27;19924;-81
2022/12/10 03:53:08;;;;;;;;;;;;;;;0.35;51.85;100478.72;5099651;27;19923;-81
2022/12/10 03:55:35;;;;;;;;;;;;;;;0.37;52.01;100478.66;5085370;28;19920;-80
2022/12/10 03:58:03;;;;;;;;;;;;;;;0.37;52.14;100473.28;5085602;28;20022;-80
2022/12/10 04:00:31;;;;;;;;;;;;;;;0.39;52.03;100474.06;5084228;28;19920;-83
2022/12/10 04:02:58;;;;;;;;;;;;;;;0.40;52.19;100480.31;5090817;28;19965;-81
2022/12/10 04:05:27;;;;;;;;;;;;;;;0.39;52.17;100474.06;5080145;28;20033;-82
2022/12/10 04:07:56;;;;;;;;;;;;;;;0.41;52.02;100472.19;5088251;28;19926;-84
2022/12/10 04:10:24;;;;;;;;;;;;;;;0.41;52.06;100480.25;5087657;27;19923;-82
2022/12/10 04:18:18;;;;;;;;;;;;;;;0.41;52.02;100482.94;5134448;22;19962;-74
2022/12/10 04:29:03;;;;;;;;;;;;;;;0.41;52.17;100477.56;5086455;28;19919;-74
2022/12/10 04:31:30;;;;;;;;;;;;;;;0.41;52.18;100484.75;5088399;28;19920;-75
2022/12/10 04:33:58;;;;;;;;;;;;;;;0.42;52.04;100486.50;5086136;28;19927;-73
2022/12/10 04:36:25;;;;;;;;;;;;;;;0.42;52.02;100482.00;5087760;28;19924;-73
2022/12/10 04:38:55;;;;;;;;;;;;;;;0.44;52.04;100482.78;5067968;28;20437;-75
2022/12/10 04:41:22;;;;;;;;;;;;;;;0.44;52.08;100484.59;5070413;28;19920;-74
2022/12/10 04:43:50;;;;;;;;;;;;;;;0.45;52.19;100480.94;5073797;28;20281;-74
2022/12/10 04:46:18;;;;;;;;;;;;;;;0.46;52.21;100483.56;5074843;28;20370;-74
2022/12/10 04:48:45;;;;;;;;;;;;;;;0.47;52.34;100489.81;5079541;28;19923;-74
2022/12/10 04:51:13;;;;;;;;;;;;;;;0.48;52.25;100488.88;5076600;28;19966;-74
2022/12/10 04:53:41;;;;;;;;;;;;;;;0.48;51.98;100495.13;5076821;28;19920;-74
2022/12/10 04:56:10;;;;;;;;;;;;;;;0.49;52.19;100494.19;5094407;28;20010;-74
2022/12/10 04:58:37;;;;;;;;;;;;;;;0.50;51.99;100492.38;5080670;28;20398;-74
2022/12/10 05:01:06;;;;;;;;;;;;;;;0.51;52.20;100495.00;5084699;28;20438;-74
2022/12/10 05:03:34;;;;;;;;;;;;;;;0.51;52.11;100484.22;5094652;28;20334;-74
2022/12/10 05:06:02;;;;;;;;;;;;;;;0.54;52.20;100493.94;5072402;28;19921;-74
2022/12/10 05:08:30;;;;;;;;;;;;;;;0.54;52.24;100492.13;5091478;28;19920;-74
2022/12/10 05:11:01;;;;;;;;;;;;;;;0.54;52.13;100494.81;5092045;28;19973;-74
2022/12/10 05:13:30;;;;;;;;;;;;;;;0.55;52.02;100493.00;5070636;28;19931;-74
2022/12/10 05:15:58;;;;;;;;;;;;;;;0.56;52.08;100489.34;5085837;28;19974;-74
2022/12/10 05:18:25;;;;;;;;;;;;;;;0.56;52.31;100484.84;5079354;28;19923;-74
2022/12/10 05:20:53;;;;;;;;;;;;;;;0.56;51.91;100490.22;5093780;28;20369;-74
2022/12/10 05:23:29;;;;;;;;;;;;;;;0.57;52.23;100486.59;5093568;28;19924;-74
2022/12/10 05:26:03;;;;;;;;;;;;;;;0.57;52.06;100483.03;5100995;28;20295;-74
2022/12/10 05:28:33;;;;;;;;;;;;;;;0.58;52.17;100485.63;5063816;28;19920;-74
2022/12/10 05:31:01;;;;;;;;;;;;;;;0.59;52.10;100489.19;5083657;28;20312;-74
2022/12/10 05:33:29;;;;;;;;;;;;;;;0.59;52.19;100483.81;5094907;28;19993;-74
2022/12/10 05:35:58;;;;;;;;;;;;;;;0.59;52.08;100482.00;5075597;28;19931;-74
2022/12/10 05:38:26;;;;;;;;;;;;;;;0.59;52.04;100489.19;5075799;28;19928;-74
2022/12/10 05:40:54;;;;;;;;;;;;;;;0.59;52.07;100490.06;5093809;28;20400;-74
2022/12/10 05:43:25;;;;;;;;;;;;;;;0.59;51.94;100492.78;5084091;28;19924;-74
2022/12/10 05:45:54;;;;;;;;;;;;;;;0.60;52.10;100497.19;5094867;28;19927;-74
2022/12/10 05:48:21;;;;;;;;;;;;;;;0.60;52.07;100490.94;5093742;28;19943;-74
2022/12/10 05:50:49;;;;;;;;;;;;;;;0.60;52.14;100493.63;5075315;28;19928;-74
2022/12/10 05:53:17;;;;;;;;;;;;;;;0.60;52.15;100490.94;5093833;28;20334;-74
2022/12/10 05:55:45;;;;;;;;;;;;;;;0.61;52.10;100492.66;5088833;28;19924;-74
2022/12/10 05:58:13;;;;;;;;;;;;;;;0.59;51.99;100495.47;5074928;28;19920;-74
2022/12/10 06:00:41;;;;;;;;;;;;;;;0.61;52.19;100500.75;5089334;28;19920;-74
2022/12/10 06:03:10;;;;;;;;;;;;;;;0.60;52.13;100497.19;5073175;28;19927;-74
2022/12/10 06:05:38;;;;;;;;;;;;;;;0.60;52.19;100499.88;5092459;28;19943;-75
2022/12/10 06:08:06;;;;;;;;;;;;;;;0.61;52.14;100509.69;5091337;28;19919;-73
2022/12/10 06:10:34;;;;;;;;;;;;;;;0.61;52.13;100511.50;5068937;28;19965;-74
2022/12/10 06:13:02;;;;;;;;;;;;;;;0.61;52.18;100503.44;5094941;28;19920;-74
2022/12/10 06:15:30;;;;;;;;;;;;;;;0.60;52.20;100510.63;5092484;28;20316;-74
2022/12/10 06:17:58;;;;;;;;;;;;;;;0.60;52.06;100510.63;5093901;28;20044;-74
2022/12/10 06:20:27;;;;;;;;;;;;;;;0.59;52.17;100508.06;5097144;28;19920;-74
2022/12/10 06:22:54;;;;;;;;;;;;;;;0.59;52.08;100511.63;5075918;28;19920;-74
2022/12/10 06:25:22;;;;;;;;;;;;;;;0.58;52.17;100512.56;5079386;28;20386;-74
2022/12/10 06:27:50;;;;;;;;;;;;;;;0.59;52.10;100511.63;5100400;28;20330;-74
2022/12/10 06:30:17;;;;;;;;;;;;;;;0.59;52.10;100521.53;5076261;28;20430;-74
2022/12/10 06:32:47;;;;;;;;;;;;;;;0.59;51.94;100513.44;5061287;28;19921;-74
2022/12/10 06:35:15;;;;;;;;;;;;;;;0.60;52.04;100515.19;5075076;28;19927;-73
2022/12/10 06:37:44;;;;;;;;;;;;;;;0.59;52.19;100516.13;5094283;28;20396;-74
2022/12/10 06:40:12;;;;;;;;;;;;;;;0.59;52.12;100529.59;5093541;28;19926;-74
2022/12/10 06:42:40;;;;;;;;;;;;;;;0.59;51.98;100534.97;5074767;28;20315;-74
2022/12/10 06:45:08;;;;;;;;;;;;;;;0.59;52.08;100532.28;5087352;28;19924;-74
2022/12/10 06:47:36;;;;;;;;;;;;;;;0.58;52.07;100539.50;5078983;28;19927;-74
2022/12/10 06:50:09;;;;;;;;;;;;;;;0.58;52.01;100539.50;5069875;28;19920;-74
2022/12/10 06:52:39;;;;;;;;;;;;;;;0.58;52.08;100542.19;5074376;28;19927;-73
2022/12/10 06:55:09;;;;;;;;;;;;;;;0.57;52.13;100540.44;5093577;28;19923;-73
2022/12/10 06:57:36;;;;;;;;;;;;;;;0.59;52.07;100548.44;5093113;28;20372;-73
2022/12/10 07:00:05;;;;;;;;;;;;;;;0.58;51.88;100547.56;5077343;28;19941;-73
2022/12/10 07:02:33;;;;;;;;;;;;;;;0.58;51.90;100546.69;5103263;28;19924;-74
2022/12/10 07:05:01;;;;;;;;;;;;;;;0.58;52.06;100547.56;5070375;28;19920;-73
2022/12/10 07:07:29;;;;;;;;;;;;;;;0.57;51.96;100550.34;5080820;28;19920;-74
2022/12/10 07:09:57;;;;;;;;;;;;;;;0.58;51.93;100555.66;5071787;28;20351;-73
2022/12/10 07:12:26;;;;;;;;;;;;;;;0.57;52.13;100553.91;5062546;28;19931;-74
2022/12/10 07:14:54;;;;;;;;;;;;;;;0.57;52.07;100553.91;5089238;28;20364;-73
2022/12/10 07:17:22;;;;;;;;;;;;;;;0.58;51.91;100549.41;5083771;28;20417;-74
2022/12/10 07:19:50;;;;;;;;;;;;;;;0.57;52.09;100551.22;5079296;28;20364;-74
2022/12/10 07:22:18;;;;;;;;;;;;;;;0.57;51.99;100553.03;5092790;28;19970;-73
2022/12/10 07:24:45;;;;;;;;;;;;;;;0.57;52.11;100558.41;5060040;28;20025;-73
2022/12/10 07:27:13;;;;;;;;;;;;;;;0.56;52.19;100570.13;5094761;28;20265;-73
2022/12/10 07:29:44;;;;;;;;;;;;;;;0.55;51.87;100566.56;5083960;28;19920;-73
2022/12/10 07:32:12;;;;;;;;;;;;;;;0.54;51.82;100564.81;5077687;28;19928;-73
2022/12/10 07:34:39;;;;;;;;;;;;;;;0.52;52.14;100565.88;5088259;28;20258;-73
2022/12/10 07:37:07;;;;;;;;;;;;;;;0.52;51.85;100571.25;5070712;28;20058;-73
2022/12/10 07:39:35;;;;;;;;;;;;;;;0.52;52.00;100573.94;5084244;28;20571;-74
2022/12/10 07:42:03;;;;;;;;;;;;;;;0.51;52.01;100577.59;5100853;28;19920;-74
2022/12/10 07:44:30;;;;;;;;;;;;;;;0.51;51.82;100580.28;5093350;28;20209;-73
2022/12/10 07:46:59;;;;;;;;;;;;;;;0.49;51.97;100579.47;5084675;28;19963;-74
2022/12/10 07:49:27;;;;;;;;;;;;;;;0.49;52.12;100584.84;5066269;28;19920;-74
2022/12/10 07:51:55;;;;;;;;;;;;;;;0.48;52.06;100578.59;5084506;28;19924;-74
2022/12/10 07:54:22;;;;;;;;;;;;;;;0.48;51.95;100583.97;5090161;28;19937;-74
2022/12/10 07:56:50;;;;;;;;;;;;;;;0.48;51.80;100585.81;5082440;28;19963;-74
2022/12/10 07:59:18;;;;;;;;;;;;;;;0.47;51.80;100593.00;5068579;28;19928;-75
2022/12/10 08:01:45;;;;;;;;;;;;;;;0.46;51.96;100591.25;5071230;28;20406;-74
2022/12/10 08:04:14;;;;;;;;;;;;;;;0.46;52.12;100591.25;5066210;28;19927;-74
2022/12/10 08:06:42;;;;;;;;;;;;;;;0.45;51.92;100594.91;5061940;28;19973;-74
2022/12/10 08:09:10;;;;;;;;;;;;;;;0.45;51.92;100602.09;5085576;28;20372;-73
2022/12/10 08:11:38;;;;;;;;;;;;;;;0.45;51.81;100602.09;5087558;28;20433;-75
2022/12/10 08:14:06;;;;;;;;;;;;;;;0.45;52.12;100604.78;5070169;28;19919;-75
2022/12/10 08:16:34;;;;;;;;;;;;;;;0.44;51.87;100608.44;5058821;28;19934;-75
2022/12/10 08:19:03;;;;;;;;;;;;;;;0.43;52.03;100604.91;5083696;28;19983;-75
2022/12/10 08:21:33;;;;;;;;;;;;;;;0.43;51.79;100607.59;5087976;28;20002;-74
2022/12/10 08:24:01;;;;;;;;;;;;;;;0.43;51.96;100606.72;5082991;28;20415;-73
2022/12/10 08:26:30;;;;;;;;;;;;;;;0.41;51.86;100617.56;5086204;28;19930;-74
2022/12/10 08:28:58;;;;;;;;;;;;;;;0.41;51.84;100616.69;5071183;28;19927;-73
2022/12/10 08:31:26;;;;;;;;;;;;;;;0.40;51.99;100623.88;5062389;28;19919;-74
2022/12/10 08:33:56;;;;;;;;;;;;;;;0.41;52.02;100625.63;5068759;28;19966;-73
2022/12/10 08:36:23;;;;;;;;;;;;;;;0.42;51.85;100637.28;5081917;28;19920;-73
2022/12/10 08:38:52;;;;;;;;;;;;;;;0.41;52.11;100636.41;5068603;28;19973;-73
2022/12/10 08:41:21;;;;;;;;;;;;;;;0.41;52.00;100639.09;5088212;28;19920;-73
2022/12/10 08:43:49;;;;;;;;;;;;;;;0.42;51.80;100637.28;5079533;28;19928;-73
2022/12/10 08:46:17;;;;;;;;;;;;;;;0.41;51.75;100640.91;5083034;28;19920;-73
2022/12/10 08:48:45;;;;;;;;;;;;;;;0.41;51.77;100639.09;5082254;28;19973;-73
2022/12/10 08:51:14;;;;;;;;;;;;;;;0.42;51.86;100642.66;5065052;28;19985;-74
2022/12/10 08:53:42;;;;;;;;;;;;;;;0.41;52.03;100641.78;5067755;28;19928;-74
2022/12/10 08:56:12;;;;;;;;;;;;;;;0.41;51.97;100649.84;5072396;28;20368;-74
2022/12/10 08:58:40;;;;;;;;;;;;;;;0.41;51.92;100648.97;5086714;28;19920;-73
2022/12/10 09:01:08;;;;;;;;;;;;;;;0.41;51.98;100657.94;5080190;28;19919;-74
2022/12/10 09:03:36;;;;;;;;;;;;;;;0.41;51.65;100654.38;5068728;28;19920;-74
2022/12/10 09:06:04;;;;;;;;;;;;;;;0.40;51.88;100653.50;5079571;28;19995;-74
2022/12/10 09:08:32;;;;;;;;;;;;;;;0.40;51.82;100663.38;5063002;28;19930;-73
2022/12/10 09:11:04;;;;;;;;;;;;;;;0.41;51.97;100662.44;5068132;28;20319;-74
2022/12/10 09:13:33;;;;;;;;;;;;;;;0.39;51.80;100661.63;5083119;28;19920;-74
2022/12/10 09:16:01;;;;;;;;;;;;;;;0.40;51.65;100666.94;5072660;28;19924;-74
2022/12/10 09:18:29;;;;;;;;;;;;;;;0.40;51.86;100664.25;5080765;28;20050;-74
2022/12/10 09:20:57;;;;;;;;;;;;;;;0.39;51.93;100665.19;5062198;28;20017;-74
2022/12/10 09:23:25;;;;;;;;;;;;;;;0.40;51.90;100663.38;5067162;28;19946;-74
2022/12/10 09:25:53;;;;;;;;;;;;;;;0.41;51.80;100667.81;5085717;28;19920;-74
2022/12/10 09:28:21;;;;;;;;;;;;;;;0.40;51.79;100668.78;5060545;28;19931;-74
2022/12/10 09:30:57;;;;;;;;;;;;;;;0.40;51.92;100668.78;5087272;28;19920;-74
2022/12/10 09:33:25;;;;;;;;;;;;;;;0.41;51.79;100674.09;5070138;28;20496;-74
2022/12/10 09:35:52;;;;;;;;;;;;;;;0.41;51.86;100667.81;5075503;28;20304;-74
2022/12/10 09:38:20;;;;;;;;;;;;;;;0.40;51.84;100675.03;5090692;28;19920;-74
2022/12/10 09:40:51;;;;;;;;;;;;;;;0.41;51.88;100667.81;5063742;28;20373;-74
2022/12/10 09:43:24;;;;;;;;;;;;;;;0.41;51.99;100678.59;5062231;28;19947;-74
2022/12/10 09:45:57;;;;;;;;;;;;;;;0.40;51.91;100675.03;5083534;28;19942;-75
2022/12/10 09:48:31;;;;;;;;;;;;;;;0.40;51.70;100669.66;5088716;28;20026;-74
2022/12/10 09:51:06;;;;;;;;;;;;;;;0.40;51.83;100676.84;5076320;28;20377;-74
2022/12/10 09:53:34;;;;;;;;;;;;;;;0.41;51.82;100675.91;5099630;28;20292;-70
2022/12/10 09:56:03;;;;;;;;;;;;;;;0.40;51.95;100676.84;5076692;28;19920;-74
2022/12/10 09:58:31;;;;;;;;;;;;;;;0.40;51.89;100677.72;5087517;28;19919;-74
2022/12/10 10:01:00;;;;;;;;;;;;;;;0.40;51.84;100674.16;5084661;28;19969;-75
2022/12/10 10:03:29;;;;;;;;;;;;;;;0.40;51.72;100680.41;5088259;28;19927;-73
2022/12/10 10:05:57;;;;;;;;;;;;;;;0.39;51.82;100678.66;5073768;28;19941;-74
2022/12/10 10:08:29;;;;;;;;;;;;;;;0.40;51.79;100684.91;5087265;28;19924;-74
2022/12/10 10:10:56;;;;;;;;;;;;;;;0.39;51.91;100684.03;5066745;28;19919;-74
2022/12/10 10:13:29;;;;;;;;;;;;;;;0.40;51.97;100682.22;5090763;28;19931;-73
2022/12/10 10:15:59;;;;;;;;;;;;;;;0.39;51.87;100685.88;5069629;28;19974;-74
2022/12/10 10:18:30;;;;;;;;;;;;;;;0.38;51.80;100674.22;5085050;22;19919;-71
2022/12/10 10:21:00;;;;;;;;;;;;;;;0.38;51.83;100668.84;5081187;28;19959;-72
2022/12/10 10:23:28;;;;;;;;;;;;;;;0.39;51.79;100667.03;5085306;28;19927;-72
2022/12/10 10:25:55;;;;;;;;;;;;;;;0.39;51.96;100673.28;5087096;28;19920;-72
2022/12/10 10:28:23;;;;;;;;;;;;;;;0.40;52.08;100679.53;5069941;28;19930;-71
2022/12/10 10:30:52;;;;;;;;;;;;;;;0.40;51.98;100683.09;5083134;28;19926;-71
2022/12/10 10:33:20;;;;;;;;;;;;;;;0.41;51.93;100674.09;5086649;28;19925;-71
2022/12/10 10:35:49;;;;;;;;;;;;;;;0.43;52.09;100679.41;5082118;28;20433;-70
2022/12/10 10:38:20;;;;;;;;;;;;;;;0.44;51.92;100675.72;5085284;28;19920;-70
2022/12/10 10:40:51;;;;;;;;;;;;;;;0.44;52.10;100676.59;5087604;28;19944;-71
2022/12/10 10:43:21;;;;;;;;;;;;;;;0.46;52.00;100672.03;5063456;28;19929;-71
2022/12/10 10:45:49;;;;;;;;;;;;;;;0.47;52.24;100672.91;5063144;28;19965;-71
2022/12/10 10:48:18;;;;;;;;;;;;;;;0.48;51.97;100678.22;5062051;28;20261;-71
2022/12/10 10:50:47;;;;;;;;;;;;;;;0.49;52.22;100671.00;5081909;28;20141;-72
2022/12/10 10:53:36;;;;;;;;;;;;;;;0.48;51.95;100672.84;5066500;28;19944;-71
2022/12/10 10:56:11;;;;;;;;;;;;;;;0.48;51.96;100670.16;5079254;28;19920;-70
2022/12/10 10:58:48;;;;;;;;;;;;;;;0.50;51.83;100664.69;5063812;28;20288;-72
2022/12/10 11:01:15;;;;;;;;;;;;;;;0.50;52.14;100668.25;5081280;28;19927;-72
2022/12/10 11:03:47;;;;;;;;;;;;;;;0.51;52.06;100667.31;5075202;28;20295;-71
2022/12/10 11:06:15;;;;;;;;;;;;;;;0.52;52.13;100665.50;5080632;28;19919;-71
2022/12/10 11:08:44;;;;;;;;;;;;;;;0.54;52.06;100668.97;5064157;28;19920;-71
2022/12/10 11:11:14;;;;;;;;;;;;;;;0.55;51.91;100673.41;5066427;28;20366;-72
2022/12/10 11:13:42;;;;;;;;;;;;;;;0.56;52.29;100667.94;5082622;28;19920;-71
2022/12/10 11:16:11;;;;;;;;;;;;;;;0.57;51.96;100661.63;5034960;28;19924;-71
2022/12/10 11:18:41;;;;;;;;;;;;;;;0.58;52.11;100660.66;5063537;28;20261;-71
2022/12/10 11:21:17;;;;;;;;;;;;;;;0.60;52.27;100657.91;5084305;28;19920;-71
2022/12/10 11:23:47;;;;;;;;;;;;;;;0.61;51.88;100667.72;5086652;28;19924;-71
2022/12/10 11:26:26;;;;;;;;;;;;;;;0.61;51.86;100663.19;5068195;28;19934;-71
2022/12/10 11:29:02;;;;;;;;;;;;;;;0.63;51.87;100664.00;5085637;28;19920;-71
2022/12/10 11:31:38;;;;;;;;;;;;;;;0.64;51.95;100667.56;5084376;28;19928;-71
2022/12/10 11:34:10;;;;;;;;;;;;;;;0.65;52.13;100659.41;5082727;28;19932;-71
2022/12/10 11:36:41;;;;;;;;;;;;;;;0.67;52.21;100656.66;5080019;28;20347;-70
2022/12/10 11:39:17;;;;;;;;;;;;;;;0.69;52.20;100660.13;5088005;28;19920;-73
2022/12/10 11:41:49;;;;;;;;;;;;;;;0.69;52.07;100652.91;5081313;28;20337;-70
2022/12/10 11:44:22;;;;;;;;;;;;;;;0.71;51.96;100651.03;5080389;28;20090;-69
2022/12/10 11:46:58;;;;;;;;;;;;;;;0.72;52.11;100652.78;5083906;28;19920;-68
2022/12/10 11:49:32;;;;;;;;;;;;;;;0.74;51.93;100655.41;5082197;28;20221;-70
2022/12/10 11:52:05;;;;;;;;;;;;;;;0.74;51.86;100653.56;5095467;28;20358;-72
2022/12/10 11:54:38;;;;;;;;;;;;;;;0.76;51.86;100655.31;5060711;28;19919;-70
2022/12/10 11:57:14;;;;;;;;;;;;;;;0.77;51.99;100659.72;5083733;28;19924;-69
2022/12/10 11:59:47;;;;;;;;;;;;;;;0.78;51.95;100664.16;5074659;28;19973;-71
2022/12/10 12:02:58;;;;;;;;;;;;;;;0.79;51.95;100668.63;5078452;28;19927;-71
2022/12/10 12:05:33;;;;;;;;;;;;;;;0.80;51.94;100668.53;5005142;28;19927;-70
2022/12/10 12:08:08;;;;;;;;;;;;;;;0.81;51.92;100664.03;5080000;28;19924;-69
2022/12/10 12:10:46;;;;;;;;;;;;;;;0.80;51.97;100665.84;5068132;28;20014;-74
2022/12/10 12:13:24;;;;;;;;;;;;;;;0.82;51.92;100673.88;5076068;28;19931;-72
2022/12/10 12:15:57;;;;;;;;;;;;;;;0.84;51.99;100674.66;5079931;28;19928;-75
2022/12/10 12:18:28;;;;;;;;;;;;;;;0.83;51.98;100676.47;5056077;28;20016;-74
2022/12/10 12:20:58;;;;;;;;;;;;;;;0.83;51.87;100676.47;5080684;28;20406;-75
2022/12/10 12:23:29;;;;;;;;;;;;;;;0.84;51.94;100671.97;5063045;28;19920;-75
2022/12/10 12:25:58;;;;;;;;;;;;;;;0.83;51.79;100668.41;5083649;28;19926;-74
2022/12/10 12:28:31;;;;;;;;;;;;;;;0.83;51.63;100665.72;5077576;28;19927;-75
2022/12/10 12:31:02;;;;;;;;;;;;;;;0.84;52.01;100659.38;5064966;28;20011;-75
2022/12/10 12:33:33;;;;;;;;;;;;;;;0.85;51.75;100662.94;5074964;28;19975;-75
2022/12/10 12:36:03;;;;;;;;;;;;;;;0.85;51.93;100660.25;5080081;28;19957;-75
2022/12/10 12:38:33;;;;;;;;;;;;;;;0.85;51.65;100673.72;5070320;28;19924;-75
2022/12/10 12:41:03;;;;;;;;;;;;;;;0.85;51.79;100665.63;5065019;28;19921;-75
2022/12/10 12:43:37;;;;;;;;;;;;;;;0.85;51.85;100666.47;5058052;28;19928;-75
2022/12/10 12:46:10;;;;;;;;;;;;;;;0.85;51.78;100669.19;5044094;28;19926;-75
2022/12/10 12:48:42;;;;;;;;;;;;;;;0.85;51.85;100673.72;5084950;28;19920;-75
2022/12/10 12:51:12;;;;;;;;;;;;;;;0.86;51.95;100664.66;5078878;28;20262;-75
2022/12/10 12:53:40;;;;;;;;;;;;;;;0.86;51.91;100672.75;5073284;28;19920;-75
2022/12/10 12:56:12;;;;;;;;;;;;;;;0.86;51.84;100672.75;5068419;28;19935;-75
2022/12/10 12:58:43;;;;;;;;;;;;;;;0.86;51.93;100670.06;5065760;28;19920;-75
2022/12/10 13:01:20;;;;;;;;;;;;;;;0.86;51.73;100670.06;5075332;28;20388;-75
2022/12/10 13:03:49;;;;;;;;;;;;;;;0.86;52.01;100670.91;5061314;28;19973;-75
2022/12/10 13:06:19;;;;;;;;;;;;;;;0.87;51.88;100675.38;5073602;28;20007;-75
2022/12/10 13:08:48;;;;;;;;;;;;;;;0.87;51.95;100679.88;5086302;28;19950;-75
2022/12/10 13:11:17;;;;;;;;;;;;;;;0.87;51.72;100672.66;5085708;28;20361;-75
2022/12/10 13:14:00;;;;;;;;;;;;;;;0.88;51.82;100668.19;5078337;28;20284;-75